sensor_id;sensor_type;location;lat;lon;timestamp;P1;durP1;ratioP1;P2;durP2;ratioP2
9248;SDS011;4660;41.768;26.198;2022-12-29T00:02:15;18.50;;;9.63;;
9248;SDS011;4660;41.768;26.198;2022-12-29T00:04:41;17.67;;;9.00;;
9248;SDS011;4660;41.768;26.198;2022-12-29T00:07:07;16.47;;;9.37;;
9248;SDS011;4660;41.768;26.198;2022-12-29T00:09:33;14.37;;;8.90;;
9248;SDS011;4660;41.768;26.198;2022-12-29T00:12:00;18.93;;;9.63;;
9248;SDS011;4660;41.768;26.198;2022-12-29T00:14:26;17.27;;;9.27;;
9248;SDS011;4660;41.768;26.198;2022-12-29T00:17:11;19.63;;;9.43;;
9248;SDS011;4660;41.768;26.198;2022-12-29T00:19:36;23.50;;;9.83;;
9248;SDS011;4660;41.768;26.198;2022-12-29T00:22:20;17.23;;;9.33;;
9248;SDS011;4660;41.768;26.198;2022-12-29T00:25:05;16.30;;;8.07;;
9248;SDS011;4660;41.768;26.198;2022-12-29T00:27:51;16.93;;;10.03;;
9248;SDS011;4660;41.768;26.198;2022-12-29T00:30:36;18.97;;;10.43;;
9248;SDS011;4660;41.768;26.198;2022-12-29T00:33:21;20.10;;;11.37;;
9248;SDS011;4660;41.768;26.198;2022-12-29T00:36:16;19.30;;;12.60;;
9248;SDS011;4660;41.768;26.198;2022-12-29T00:38:46;21.90;;;13.03;;
9248;SDS011;4660;41.768;26.198;2022-12-29T00:41:33;18.43;;;11.17;;
9248;SDS011;4660;41.768;26.198;2022-12-29T00:44:17;17.43;;;10.40;;
9248;SDS011;4660;41.768;26.198;2022-12-29T00:46:43;18.67;;;10.63;;
9248;SDS011;4660;41.768;26.198;2022-12-29T00:49:09;16.10;;;10.43;;
9248;SDS011;4660;41.768;26.198;2022-12-29T00:51:55;20.17;;;11.83;;
9248;SDS011;4660;41.768;26.198;2022-12-29T00:54:25;24.53;;;12.63;;
9248;SDS011;4660;41.768;26.198;2022-12-29T00:56:52;16.47;;;10.43;;
9248;SDS011;4660;41.768;26.198;2022-12-29T00:59:18;25.47;;;12.03;;
9248;SDS011;4660;41.768;26.198;2022-12-29T01:01:44;20.63;;;10.03;;
9248;SDS011;4660;41.768;26.198;2022-12-29T01:04:11;15.27;;;10.17;;
9248;SDS011;4660;41.768;26.198;2022-12-29T01:06:37;18.13;;;10.63;;
9248;SDS011;4660;41.768;26.198;2022-12-29T01:09:05;14.30;;;9.23;;
9248;SDS011;4660;41.768;26.198;2022-12-29T01:11:50;16.43;;;10.43;;
9248;SDS011;4660;41.768;26.198;2022-12-29T01:14:16;19.60;;;11.30;;
9248;SDS011;4660;41.768;26.198;2022-12-29T01:16:42;17.50;;;10.93;;
9248;SDS011;4660;41.768;26.198;2022-12-29T01:19:08;18.20;;;11.87;;
9248;SDS011;4660;41.768;26.198;2022-12-29T01:21:34;16.77;;;11.27;;
9248;SDS011;4660;41.768;26.198;2022-12-29T01:24:00;17.37;;;11.67;;
9248;SDS011;4660;41.768;26.198;2022-12-29T01:26:26;18.13;;;10.50;;
9248;SDS011;4660;41.768;26.198;2022-12-29T01:28:51;15.70;;;10.50;;
9248;SDS011;4660;41.768;26.198;2022-12-29T01:31:17;16.93;;;11.57;;
9248;SDS011;4660;41.768;26.198;2022-12-29T01:33:42;17.53;;;11.00;;
9248;SDS011;4660;41.768;26.198;2022-12-29T01:36:10;20.13;;;12.10;;
9248;SDS011;4660;41.768;26.198;2022-12-29T01:38:37;16.70;;;12.07;;
9248;SDS011;4660;41.768;26.198;2022-12-29T01:41:04;19.63;;;12.93;;
9248;SDS011;4660;41.768;26.198;2022-12-29T01:46:28;31.00;;;15.83;;
9248;SDS011;4660;41.768;26.198;2022-12-29T01:52:00;42.13;;;16.47;;
9248;SDS011;4660;41.768;26.198;2022-12-29T01:54:31;40.93;;;15.60;;
9248;SDS011;4660;41.768;26.198;2022-12-29T01:57:07;36.63;;;16.50;;
9248;SDS011;4660;41.768;26.198;2022-12-29T01:59:39;44.40;;;17.83;;
9248;SDS011;4660;41.768;26.198;2022-12-29T02:02:10;38.80;;;15.73;;
9248;SDS011;4660;41.768;26.198;2022-12-29T02:04:38;34.97;;;14.30;;
9248;SDS011;4660;41.768;26.198;2022-12-29T02:07:10;36.53;;;16.60;;
9248;SDS011;4660;41.768;26.198;2022-12-29T02:09:40;32.00;;;14.20;;
9248;SDS011;4660;41.768;26.198;2022-12-29T02:12:07;30.23;;;13.93;;
9248;SDS011;4660;41.768;26.198;2022-12-29T02:14:33;23.43;;;14.27;;
9248;SDS011;4660;41.768;26.198;2022-12-29T02:42:44;30.53;;;16.87;;
9248;SDS011;4660;41.768;26.198;2022-12-29T02:45:18;26.57;;;14.47;;
9248;SDS011;4660;41.768;26.198;2022-12-29T02:48:29;23.93;;;14.37;;
9248;SDS011;4660;41.768;26.198;2022-12-29T02:51:02;27.90;;;14.53;;
9248;SDS011;4660;41.768;26.198;2022-12-29T02:53:30;18.13;;;11.30;;
9248;SDS011;4660;41.768;26.198;2022-12-29T02:56:16;16.70;;;9.73;;
9248;SDS011;4660;41.768;26.198;2022-12-29T02:58:42;11.30;;;7.00;;
9248;SDS011;4660;41.768;26.198;2022-12-29T03:07:07;13.57;;;7.07;;
9248;SDS011;4660;41.768;26.198;2022-12-29T03:15:22;21.03;;;12.83;;
9248;SDS011;4660;41.768;26.198;2022-12-29T03:18:13;14.10;;;9.87;;
9248;SDS011;4660;41.768;26.198;2022-12-29T03:21:00;12.23;;;7.87;;
9248;SDS011;4660;41.768;26.198;2022-12-29T03:23:33;12.37;;;7.53;;
9248;SDS011;4660;41.768;26.198;2022-12-29T03:26:02;11.93;;;6.87;;
9248;SDS011;4660;41.768;26.198;2022-12-29T03:28:36;13.40;;;6.60;;
9248;SDS011;4660;41.768;26.198;2022-12-29T03:31:06;11.47;;;7.00;;
9248;SDS011;4660;41.768;26.198;2022-12-29T03:33:34;8.13;;;5.93;;
9248;SDS011;4660;41.768;26.198;2022-12-29T03:36:03;9.27;;;7.03;;
9248;SDS011;4660;41.768;26.198;2022-12-29T03:41:04;7.97;;;7.17;;
9248;SDS011;4660;41.768;26.198;2022-12-29T03:43:33;12.47;;;6.80;;
9248;SDS011;4660;41.768;26.198;2022-12-29T03:45:58;11.13;;;7.90;;
9248;SDS011;4660;41.768;26.198;2022-12-29T03:48:24;8.77;;;6.43;;
9248;SDS011;4660;41.768;26.198;2022-12-29T03:50:50;10.40;;;6.17;;
9248;SDS011;4660;41.768;26.198;2022-12-29T03:53:15;11.50;;;7.33;;
9248;SDS011;4660;41.768;26.198;2022-12-29T03:55:41;11.03;;;6.30;;
9248;SDS011;4660;41.768;26.198;2022-12-29T03:58:07;9.70;;;6.27;;
9248;SDS011;4660;41.768;26.198;2022-12-29T04:00:32;12.40;;;7.47;;
9248;SDS011;4660;41.768;26.198;2022-12-29T04:02:59;14.80;;;8.17;;
9248;SDS011;4660;41.768;26.198;2022-12-29T04:05:24;16.27;;;9.23;;
9248;SDS011;4660;41.768;26.198;2022-12-29T04:07:50;13.07;;;8.47;;
9248;SDS011;4660;41.768;26.198;2022-12-29T04:10:16;16.47;;;10.00;;
9248;SDS011;4660;41.768;26.198;2022-12-29T04:12:41;24.03;;;10.77;;
9248;SDS011;4660;41.768;26.198;2022-12-29T04:15:07;29.60;;;12.57;;
9248;SDS011;4660;41.768;26.198;2022-12-29T04:17:33;28.37;;;11.37;;
9248;SDS011;4660;41.768;26.198;2022-12-29T04:19:59;24.97;;;10.37;;
9248;SDS011;4660;41.768;26.198;2022-12-29T04:22:43;49.70;;;10.67;;
9248;SDS011;4660;41.768;26.198;2022-12-29T04:25:08;30.53;;;9.60;;
9248;SDS011;4660;41.768;26.198;2022-12-29T04:27:34;24.37;;;10.23;;
9248;SDS011;4660;41.768;26.198;2022-12-29T04:30:00;40.57;;;10.57;;
9248;SDS011;4660;41.768;26.198;2022-12-29T04:32:25;25.20;;;10.27;;
9248;SDS011;4660;41.768;26.198;2022-12-29T04:34:51;27.57;;;12.03;;
9248;SDS011;4660;41.768;26.198;2022-12-29T04:37:16;37.37;;;14.47;;
9248;SDS011;4660;41.768;26.198;2022-12-29T04:39:42;21.03;;;12.23;;
9248;SDS011;4660;41.768;26.198;2022-12-29T04:42:08;29.67;;;14.00;;
9248;SDS011;4660;41.768;26.198;2022-12-29T04:44:33;16.80;;;12.60;;
9248;SDS011;4660;41.768;26.198;2022-12-29T04:46:59;24.47;;;12.80;;
9248;SDS011;4660;41.768;26.198;2022-12-29T04:49:24;17.73;;;11.27;;
9248;SDS011;4660;41.768;26.198;2022-12-29T04:51:50;16.93;;;11.97;;
9248;SDS011;4660;41.768;26.198;2022-12-29T04:54:15;18.00;;;11.27;;
9248;SDS011;4660;41.768;26.198;2022-12-29T04:56:41;16.10;;;10.23;;
9248;SDS011;4660;41.768;26.198;2022-12-29T04:59:06;16.60;;;10.77;;
9248;SDS011;4660;41.768;26.198;2022-12-29T05:01:32;17.53;;;10.73;;
9248;SDS011;4660;41.768;26.198;2022-12-29T05:03:57;17.47;;;11.03;;
9248;SDS011;4660;41.768;26.198;2022-12-29T05:06:25;19.80;;;10.93;;
9248;SDS011;4660;41.768;26.198;2022-12-29T05:08:54;23.37;;;14.30;;
9248;SDS011;4660;41.768;26.198;2022-12-29T05:11:20;21.67;;;14.87;;
9248;SDS011;4660;41.768;26.198;2022-12-29T05:13:46;26.90;;;15.73;;
9248;SDS011;4660;41.768;26.198;2022-12-29T05:16:13;25.43;;;14.30;;
9248;SDS011;4660;41.768;26.198;2022-12-29T05:18:39;25.27;;;14.23;;
9248;SDS011;4660;41.768;26.198;2022-12-29T05:21:05;52.33;;;15.63;;
9248;SDS011;4660;41.768;26.198;2022-12-29T05:23:34;32.77;;;16.83;;
9248;SDS011;4660;41.768;26.198;2022-12-29T05:26:02;39.03;;;14.60;;
9248;SDS011;4660;41.768;26.198;2022-12-29T05:28:32;50.70;;;13.83;;
9248;SDS011;4660;41.768;26.198;2022-12-29T05:30:59;48.00;;;14.90;;
9248;SDS011;4660;41.768;26.198;2022-12-29T05:33:25;23.77;;;13.93;;
9248;SDS011;4660;41.768;26.198;2022-12-29T05:35:53;34.60;;;13.77;;
9248;SDS011;4660;41.768;26.198;2022-12-29T05:38:21;23.93;;;16.57;;
9248;SDS011;4660;41.768;26.198;2022-12-29T05:40:48;39.33;;;15.20;;
9248;SDS011;4660;41.768;26.198;2022-12-29T05:43:23;16.63;;;11.47;;
9248;SDS011;4660;41.768;26.198;2022-12-29T05:46:39;47.43;;;15.93;;
9248;SDS011;4660;41.768;26.198;2022-12-29T05:49:07;33.27;;;12.47;;
9248;SDS011;4660;41.768;26.198;2022-12-29T05:55:18;19.40;;;12.70;;
9248;SDS011;4660;41.768;26.198;2022-12-29T05:57:44;17.93;;;11.93;;
9248;SDS011;4660;41.768;26.198;2022-12-29T06:00:22;16.20;;;11.47;;
9248;SDS011;4660;41.768;26.198;2022-12-29T06:02:48;18.27;;;12.53;;
9248;SDS011;4660;41.768;26.198;2022-12-29T06:05:17;17.33;;;12.27;;
9248;SDS011;4660;41.768;26.198;2022-12-29T06:07:43;41.53;;;21.70;;
9248;SDS011;4660;41.768;26.198;2022-12-29T06:10:10;52.43;;;31.37;;
9248;SDS011;4660;41.768;26.198;2022-12-29T06:12:40;60.67;;;37.70;;
9248;SDS011;4660;41.768;26.198;2022-12-29T06:15:06;58.93;;;32.50;;
9248;SDS011;4660;41.768;26.198;2022-12-29T06:17:33;53.23;;;31.10;;
9248;SDS011;4660;41.768;26.198;2022-12-29T06:20:00;30.83;;;19.07;;
9248;SDS011;4660;41.768;26.198;2022-12-29T06:22:30;28.07;;;15.63;;
9248;SDS011;4660;41.768;26.198;2022-12-29T06:25:02;40.47;;;15.70;;
9248;SDS011;4660;41.768;26.198;2022-12-29T06:27:33;31.47;;;12.63;;
9248;SDS011;4660;41.768;26.198;2022-12-29T06:30:15;23.10;;;15.07;;
9248;SDS011;4660;41.768;26.198;2022-12-29T06:32:57;35.10;;;24.00;;
9248;SDS011;4660;41.768;26.198;2022-12-29T06:35:27;38.13;;;25.80;;
9248;SDS011;4660;41.768;26.198;2022-12-29T06:37:53;28.63;;;18.80;;
9248;SDS011;4660;41.768;26.198;2022-12-29T06:40:23;15.70;;;12.30;;
9248;SDS011;4660;41.768;26.198;2022-12-29T06:42:57;13.83;;;10.00;;
9248;SDS011;4660;41.768;26.198;2022-12-29T06:45:24;23.50;;;15.83;;
9248;SDS011;4660;41.768;26.198;2022-12-29T06:47:53;16.97;;;12.87;;
9248;SDS011;4660;41.768;26.198;2022-12-29T06:50:23;19.87;;;13.53;;
9248;SDS011;4660;41.768;26.198;2022-12-29T06:52:54;15.53;;;11.60;;
9248;SDS011;4660;41.768;26.198;2022-12-29T06:55:20;16.67;;;11.43;;
9248;SDS011;4660;41.768;26.198;2022-12-29T06:57:47;16.10;;;11.87;;
9248;SDS011;4660;41.768;26.198;2022-12-29T07:00:19;17.50;;;12.50;;
9248;SDS011;4660;41.768;26.198;2022-12-29T07:02:46;14.03;;;10.73;;
9248;SDS011;4660;41.768;26.198;2022-12-29T07:05:15;15.10;;;9.57;;
9248;SDS011;4660;41.768;26.198;2022-12-29T07:07:53;17.90;;;10.60;;
9248;SDS011;4660;41.768;26.198;2022-12-29T07:10:32;17.10;;;10.43;;
9248;SDS011;4660;41.768;26.198;2022-12-29T07:13:02;12.87;;;9.77;;
9248;SDS011;4660;41.768;26.198;2022-12-29T07:15:38;11.40;;;9.10;;
9248;SDS011;4660;41.768;26.198;2022-12-29T07:18:12;16.03;;;9.20;;
9248;SDS011;4660;41.768;26.198;2022-12-29T07:20:44;12.90;;;8.53;;
9248;SDS011;4660;41.768;26.198;2022-12-29T07:23:11;10.50;;;8.13;;
9248;SDS011;4660;41.768;26.198;2022-12-29T07:25:49;10.90;;;8.07;;
9248;SDS011;4660;41.768;26.198;2022-12-29T07:28:19;12.30;;;8.30;;
9248;SDS011;4660;41.768;26.198;2022-12-29T07:30:51;12.60;;;9.10;;
9248;SDS011;4660;41.768;26.198;2022-12-29T07:33:42;10.83;;;8.40;;
9248;SDS011;4660;41.768;26.198;2022-12-29T07:38:43;10.90;;;8.07;;
9248;SDS011;4660;41.768;26.198;2022-12-29T07:41:17;14.97;;;8.93;;
9248;SDS011;4660;41.768;26.198;2022-12-29T07:43:48;14.10;;;8.57;;
9248;SDS011;4660;41.768;26.198;2022-12-29T07:46:16;11.90;;;8.53;;
9248;SDS011;4660;41.768;26.198;2022-12-29T07:48:44;13.07;;;10.13;;
9248;SDS011;4660;41.768;26.198;2022-12-29T07:51:12;16.90;;;11.03;;
9248;SDS011;4660;41.768;26.198;2022-12-29T07:59:03;18.97;;;13.70;;
9248;SDS011;4660;41.768;26.198;2022-12-29T08:02:02;16.53;;;11.20;;
9248;SDS011;4660;41.768;26.198;2022-12-29T08:04:46;18.30;;;12.97;;
9248;SDS011;4660;41.768;26.198;2022-12-29T08:07:23;16.83;;;12.93;;
9248;SDS011;4660;41.768;26.198;2022-12-29T08:09:51;16.63;;;12.00;;
9248;SDS011;4660;41.768;26.198;2022-12-29T08:12:17;17.87;;;12.03;;
9248;SDS011;4660;41.768;26.198;2022-12-29T08:14:45;20.67;;;13.27;;
9248;SDS011;4660;41.768;26.198;2022-12-29T08:17:11;17.77;;;12.93;;
9248;SDS011;4660;41.768;26.198;2022-12-29T08:19:40;18.30;;;13.33;;
9248;SDS011;4660;41.768;26.198;2022-12-29T08:22:07;19.27;;;12.63;;
9248;SDS011;4660;41.768;26.198;2022-12-29T08:24:36;18.30;;;13.43;;
9248;SDS011;4660;41.768;26.198;2022-12-29T08:29:40;16.10;;;12.40;;
9248;SDS011;4660;41.768;26.198;2022-12-29T08:32:14;17.07;;;13.13;;
9248;SDS011;4660;41.768;26.198;2022-12-29T08:34:41;24.10;;;12.80;;
9248;SDS011;4660;41.768;26.198;2022-12-29T08:37:07;19.33;;;12.33;;
9248;SDS011;4660;41.768;26.198;2022-12-29T08:39:34;20.37;;;13.10;;
9248;SDS011;4660;41.768;26.198;2022-12-29T08:41:59;15.63;;;11.77;;
9248;SDS011;4660;41.768;26.198;2022-12-29T08:44:25;19.77;;;12.73;;
9248;SDS011;4660;41.768;26.198;2022-12-29T08:46:50;19.37;;;12.47;;
9248;SDS011;4660;41.768;26.198;2022-12-29T08:49:16;18.47;;;12.73;;
9248;SDS011;4660;41.768;26.198;2022-12-29T08:51:42;21.87;;;13.53;;
9248;SDS011;4660;41.768;26.198;2022-12-29T08:54:08;16.63;;;12.67;;
9248;SDS011;4660;41.768;26.198;2022-12-29T08:56:34;18.03;;;12.60;;
9248;SDS011;4660;41.768;26.198;2022-12-29T08:59:05;17.07;;;13.23;;
9248;SDS011;4660;41.768;26.198;2022-12-29T09:01:31;19.37;;;13.47;;
9248;SDS011;4660;41.768;26.198;2022-12-29T09:03:58;18.23;;;13.07;;
9248;SDS011;4660;41.768;26.198;2022-12-29T09:06:23;16.87;;;13.07;;
9248;SDS011;4660;41.768;26.198;2022-12-29T09:08:49;17.97;;;12.33;;
9248;SDS011;4660;41.768;26.198;2022-12-29T09:11:19;19.67;;;12.57;;
9248;SDS011;4660;41.768;26.198;2022-12-29T09:13:47;20.97;;;12.33;;
9248;SDS011;4660;41.768;26.198;2022-12-29T09:16:13;25.43;;;14.20;;
9248;SDS011;4660;41.768;26.198;2022-12-29T09:18:38;17.10;;;11.60;;
9248;SDS011;4660;41.768;26.198;2022-12-29T09:21:04;19.37;;;12.10;;
9248;SDS011;4660;41.768;26.198;2022-12-29T09:23:31;16.13;;;11.07;;
9248;SDS011;4660;41.768;26.198;2022-12-29T09:25:58;16.13;;;11.83;;
9248;SDS011;4660;41.768;26.198;2022-12-29T09:28:23;19.13;;;12.53;;
9248;SDS011;4660;41.768;26.198;2022-12-29T09:30:50;17.63;;;12.27;;
9248;SDS011;4660;41.768;26.198;2022-12-29T09:33:16;15.40;;;11.60;;
9248;SDS011;4660;41.768;26.198;2022-12-29T09:35:49;18.07;;;12.47;;
9248;SDS011;4660;41.768;26.198;2022-12-29T09:38:19;15.07;;;11.23;;
9248;SDS011;4660;41.768;26.198;2022-12-29T09:40:46;16.93;;;12.37;;
9248;SDS011;4660;41.768;26.198;2022-12-29T09:46:10;16.17;;;12.53;;
9248;SDS011;4660;41.768;26.198;2022-12-29T09:49:13;19.33;;;14.27;;
9248;SDS011;4660;41.768;26.198;2022-12-29T09:51:47;20.03;;;13.33;;
9248;SDS011;4660;41.768;26.198;2022-12-29T09:54:24;21.73;;;13.13;;
9248;SDS011;4660;41.768;26.198;2022-12-29T09:56:59;16.87;;;13.33;;
9248;SDS011;4660;41.768;26.198;2022-12-29T09:59:38;19.33;;;14.23;;
9248;SDS011;4660;41.768;26.198;2022-12-29T10:04:56;17.77;;;13.43;;
9248;SDS011;4660;41.768;26.198;2022-12-29T10:07:41;19.70;;;13.13;;
9248;SDS011;4660;41.768;26.198;2022-12-29T10:13:18;20.80;;;15.03;;
9248;SDS011;4660;41.768;26.198;2022-12-29T10:24:37;16.80;;;13.93;;
9248;SDS011;4660;41.768;26.198;2022-12-29T10:27:04;20.60;;;14.57;;
9248;SDS011;4660;41.768;26.198;2022-12-29T10:29:37;21.90;;;13.73;;
9248;SDS011;4660;41.768;26.198;2022-12-29T10:35:18;15.13;;;13.37;;
9248;SDS011;4660;41.768;26.198;2022-12-29T10:40:27;16.63;;;11.80;;
9248;SDS011;4660;41.768;26.198;2022-12-29T10:42:58;15.10;;;11.53;;
9248;SDS011;4660;41.768;26.198;2022-12-29T10:45:26;15.03;;;12.13;;
9248;SDS011;4660;41.768;26.198;2022-12-29T10:47:58;16.07;;;12.63;;
9248;SDS011;4660;41.768;26.198;2022-12-29T10:50:31;12.63;;;11.20;;
9248;SDS011;4660;41.768;26.198;2022-12-29T10:52:58;16.40;;;10.87;;
9248;SDS011;4660;41.768;26.198;2022-12-29T10:55:29;18.10;;;9.87;;
9248;SDS011;4660;41.768;26.198;2022-12-29T10:58:03;11.87;;;9.27;;
9248;SDS011;4660;41.768;26.198;2022-12-29T11:00:31;11.27;;;9.23;;
9248;SDS011;4660;41.768;26.198;2022-12-29T11:06:11;15.07;;;9.07;;
9248;SDS011;4660;41.768;26.198;2022-12-29T11:08:57;15.60;;;10.03;;
9248;SDS011;4660;41.768;26.198;2022-12-29T11:11:46;13.40;;;8.83;;
9248;SDS011;4660;41.768;26.198;2022-12-29T11:14:13;10.93;;;9.20;;
9248;SDS011;4660;41.768;26.198;2022-12-29T11:16:43;10.30;;;8.87;;
9248;SDS011;4660;41.768;26.198;2022-12-29T11:19:23;13.00;;;10.10;;
9248;SDS011;4660;41.768;26.198;2022-12-29T11:21:53;13.97;;;10.47;;
9248;SDS011;4660;41.768;26.198;2022-12-29T11:24:47;12.93;;;8.87;;
9248;SDS011;4660;41.768;26.198;2022-12-29T11:27:19;11.47;;;8.20;;
9248;SDS011;4660;41.768;26.198;2022-12-29T11:29:56;14.33;;;8.50;;
9248;SDS011;4660;41.768;26.198;2022-12-29T11:32:24;10.60;;;8.47;;
9248;SDS011;4660;41.768;26.198;2022-12-29T11:34:53;12.43;;;9.53;;
9248;SDS011;4660;41.768;26.198;2022-12-29T11:37:28;14.30;;;10.87;;
9248;SDS011;4660;41.768;26.198;2022-12-29T11:40:28;18.27;;;10.13;;
9248;SDS011;4660;41.768;26.198;2022-12-29T11:42:58;12.47;;;9.10;;
9248;SDS011;4660;41.768;26.198;2022-12-29T11:45:34;13.07;;;9.73;;
9248;SDS011;4660;41.768;26.198;2022-12-29T11:50:39;13.27;;;9.50;;
9248;SDS011;4660;41.768;26.198;2022-12-29T11:55:40;15.53;;;11.03;;
9248;SDS011;4660;41.768;26.198;2022-12-29T11:58:30;16.97;;;10.97;;
9248;SDS011;4660;41.768;26.198;2022-12-29T12:01:05;16.30;;;10.80;;
9248;SDS011;4660;41.768;26.198;2022-12-29T12:03:48;15.13;;;10.70;;
9248;SDS011;4660;41.768;26.198;2022-12-29T12:06:27;21.43;;;12.97;;
9248;SDS011;4660;41.768;26.198;2022-12-29T12:09:18;16.33;;;11.93;;
9248;SDS011;4660;41.768;26.198;2022-12-29T12:12:07;16.17;;;11.07;;
9248;SDS011;4660;41.768;26.198;2022-12-29T12:14:43;15.00;;;11.23;;
9248;SDS011;4660;41.768;26.198;2022-12-29T12:17:21;16.67;;;11.50;;
9248;SDS011;4660;41.768;26.198;2022-12-29T12:20:05;16.23;;;10.33;;
9248;SDS011;4660;41.768;26.198;2022-12-29T12:25:43;18.30;;;10.40;;
9248;SDS011;4660;41.768;26.198;2022-12-29T12:30:55;12.47;;;10.10;;
9248;SDS011;4660;41.768;26.198;2022-12-29T12:38:29;14.93;;;9.67;;
9248;SDS011;4660;41.768;26.198;2022-12-29T12:43:41;13.00;;;10.40;;
9248;SDS011;4660;41.768;26.198;2022-12-29T13:02:40;11.57;;;9.57;;
9248;SDS011;4660;41.768;26.198;2022-12-29T13:05:29;13.13;;;8.93;;
9248;SDS011;4660;41.768;26.198;2022-12-29T13:11:12;11.77;;;8.37;;
9248;SDS011;4660;41.768;26.198;2022-12-29T13:14:08;12.17;;;8.80;;
9248;SDS011;4660;41.768;26.198;2022-12-29T13:18:02;14.87;;;8.73;;
9248;SDS011;4660;41.768;26.198;2022-12-29T13:20:54;11.77;;;10.17;;
9248;SDS011;4660;41.768;26.198;2022-12-29T13:24:16;13.10;;;9.17;;
9248;SDS011;4660;41.768;26.198;2022-12-29T13:27:44;13.80;;;10.43;;
9248;SDS011;4660;41.768;26.198;2022-12-29T13:30:41;15.60;;;9.23;;
9248;SDS011;4660;41.768;26.198;2022-12-29T13:33:49;51.90;;;25.60;;
9248;SDS011;4660;41.768;26.198;2022-12-29T13:41:59;11.90;;;8.13;;
9248;SDS011;4660;41.768;26.198;2022-12-29T13:44:34;10.47;;;8.13;;
9248;SDS011;4660;41.768;26.198;2022-12-29T13:47:37;17.17;;;8.80;;
9248;SDS011;4660;41.768;26.198;2022-12-29T13:50:28;13.90;;;8.33;;
9248;SDS011;4660;41.768;26.198;2022-12-29T13:56:23;10.27;;;6.70;;
9248;SDS011;4660;41.768;26.198;2022-12-29T13:59:54;14.30;;;9.33;;
9248;SDS011;4660;41.768;26.198;2022-12-29T14:09:00;17.73;;;9.17;;
9248;SDS011;4660;41.768;26.198;2022-12-29T14:18:10;17.90;;;10.97;;
9248;SDS011;4660;41.768;26.198;2022-12-29T14:21:17;18.33;;;10.53;;
9248;SDS011;4660;41.768;26.198;2022-12-29T14:23:53;18.40;;;11.20;;
9248;SDS011;4660;41.768;26.198;2022-12-29T14:26:47;18.73;;;11.90;;
9248;SDS011;4660;41.768;26.198;2022-12-29T14:29:16;18.63;;;11.93;;
9248;SDS011;4660;41.768;26.198;2022-12-29T14:32:36;20.97;;;10.73;;
9248;SDS011;4660;41.768;26.198;2022-12-29T14:38:19;20.63;;;11.40;;
9248;SDS011;4660;41.768;26.198;2022-12-29T14:46:47;28.73;;;14.90;;
9248;SDS011;4660;41.768;26.198;2022-12-29T14:49:38;32.13;;;15.17;;
9248;SDS011;4660;41.768;26.198;2022-12-29T14:52:24;27.80;;;15.60;;
9248;SDS011;4660;41.768;26.198;2022-12-29T14:57:48;29.60;;;19.40;;
9248;SDS011;4660;41.768;26.198;2022-12-29T15:00:30;33.03;;;19.20;;
9248;SDS011;4660;41.768;26.198;2022-12-29T15:03:22;31.17;;;14.87;;
9248;SDS011;4660;41.768;26.198;2022-12-29T15:05:58;25.53;;;14.60;;
9248;SDS011;4660;41.768;26.198;2022-12-29T15:08:38;25.30;;;14.93;;
9248;SDS011;4660;41.768;26.198;2022-12-29T15:11:21;24.33;;;14.23;;
9248;SDS011;4660;41.768;26.198;2022-12-29T15:13:55;29.43;;;15.20;;
9248;SDS011;4660;41.768;26.198;2022-12-29T15:16:22;24.27;;;14.47;;
9248;SDS011;4660;41.768;26.198;2022-12-29T15:19:22;33.10;;;16.20;;
9248;SDS011;4660;41.768;26.198;2022-12-29T15:21:49;27.63;;;16.13;;
9248;SDS011;4660;41.768;26.198;2022-12-29T15:24:16;28.33;;;15.50;;
9248;SDS011;4660;41.768;26.198;2022-12-29T15:26:42;28.13;;;16.00;;
9248;SDS011;4660;41.768;26.198;2022-12-29T15:32:27;27.87;;;15.93;;
9248;SDS011;4660;41.768;26.198;2022-12-29T15:34:55;39.90;;;21.00;;
9248;SDS011;4660;41.768;26.198;2022-12-29T15:37:32;36.00;;;19.30;;
9248;SDS011;4660;41.768;26.198;2022-12-29T15:40:00;38.33;;;18.27;;
9248;SDS011;4660;41.768;26.198;2022-12-29T15:42:39;26.53;;;14.20;;
9248;SDS011;4660;41.768;26.198;2022-12-29T15:45:34;22.93;;;13.43;;
9248;SDS011;4660;41.768;26.198;2022-12-29T15:48:01;36.27;;;18.37;;
9248;SDS011;4660;41.768;26.198;2022-12-29T15:50:32;32.57;;;17.27;;
9248;SDS011;4660;41.768;26.198;2022-12-29T15:53:09;27.67;;;16.80;;
9248;SDS011;4660;41.768;26.198;2022-12-29T15:55:37;32.00;;;16.83;;
9248;SDS011;4660;41.768;26.198;2022-12-29T15:58:15;31.50;;;16.37;;
9248;SDS011;4660;41.768;26.198;2022-12-29T16:00:49;29.23;;;15.67;;
9248;SDS011;4660;41.768;26.198;2022-12-29T16:03:18;29.10;;;15.00;;
9248;SDS011;4660;41.768;26.198;2022-12-29T16:05:51;30.97;;;16.80;;
9248;SDS011;4660;41.768;26.198;2022-12-29T16:08:24;36.10;;;18.63;;
9248;SDS011;4660;41.768;26.198;2022-12-29T16:17:01;40.67;;;21.90;;
9248;SDS011;4660;41.768;26.198;2022-12-29T16:19:34;51.00;;;22.97;;
9248;SDS011;4660;41.768;26.198;2022-12-29T16:22:03;43.53;;;22.87;;
9248;SDS011;4660;41.768;26.198;2022-12-29T16:24:36;40.70;;;20.30;;
9248;SDS011;4660;41.768;26.198;2022-12-29T16:29:49;44.90;;;21.83;;
9248;SDS011;4660;41.768;26.198;2022-12-29T16:32:30;36.43;;;19.20;;
9248;SDS011;4660;41.768;26.198;2022-12-29T16:37:45;41.27;;;25.03;;
9248;SDS011;4660;41.768;26.198;2022-12-29T16:48:10;52.57;;;33.60;;
9248;SDS011;4660;41.768;26.198;2022-12-29T16:50:44;72.03;;;36.93;;
9248;SDS011;4660;41.768;26.198;2022-12-29T16:53:21;67.67;;;34.53;;
9248;SDS011;4660;41.768;26.198;2022-12-29T16:55:51;60.00;;;30.20;;
9248;SDS011;4660;41.768;26.198;2022-12-29T16:58:19;68.37;;;33.30;;
9248;SDS011;4660;41.768;26.198;2022-12-29T17:00:47;68.07;;;33.47;;
9248;SDS011;4660;41.768;26.198;2022-12-29T17:03:13;70.57;;;33.97;;
9248;SDS011;4660;41.768;26.198;2022-12-29T17:05:40;82.20;;;39.27;;
9248;SDS011;4660;41.768;26.198;2022-12-29T17:08:16;76.40;;;38.07;;
9248;SDS011;4660;41.768;26.198;2022-12-29T17:10:53;86.23;;;37.60;;
9248;SDS011;4660;41.768;26.198;2022-12-29T17:13:40;62.17;;;33.03;;
9248;SDS011;4660;41.768;26.198;2022-12-29T17:16:07;62.23;;;37.77;;
9248;SDS011;4660;41.768;26.198;2022-12-29T17:18:35;48.53;;;28.40;;
9248;SDS011;4660;41.768;26.198;2022-12-29T17:21:12;41.43;;;22.43;;
9248;SDS011;4660;41.768;26.198;2022-12-29T17:23:45;46.50;;;27.57;;
9248;SDS011;4660;41.768;26.198;2022-12-29T17:26:17;49.80;;;29.57;;
9248;SDS011;4660;41.768;26.198;2022-12-29T17:28:46;52.37;;;32.07;;
9248;SDS011;4660;41.768;26.198;2022-12-29T17:31:12;58.33;;;35.03;;
9248;SDS011;4660;41.768;26.198;2022-12-29T17:33:38;62.53;;;36.30;;
9248;SDS011;4660;41.768;26.198;2022-12-29T17:36:09;48.60;;;28.90;;
9248;SDS011;4660;41.768;26.198;2022-12-29T17:38:38;47.03;;;27.37;;
9248;SDS011;4660;41.768;26.198;2022-12-29T17:41:08;51.63;;;28.13;;
9248;SDS011;4660;41.768;26.198;2022-12-29T17:43:41;43.67;;;27.30;;
9248;SDS011;4660;41.768;26.198;2022-12-29T17:46:13;38.93;;;23.87;;
9248;SDS011;4660;41.768;26.198;2022-12-29T17:48:40;43.80;;;24.70;;
9248;SDS011;4660;41.768;26.198;2022-12-29T17:51:07;39.73;;;23.90;;
9248;SDS011;4660;41.768;26.198;2022-12-29T17:53:35;33.13;;;20.40;;
9248;SDS011;4660;41.768;26.198;2022-12-29T17:56:01;38.47;;;22.50;;
9248;SDS011;4660;41.768;26.198;2022-12-29T17:58:27;31.20;;;20.40;;
9248;SDS011;4660;41.768;26.198;2022-12-29T18:00:57;33.80;;;20.23;;
9248;SDS011;4660;41.768;26.198;2022-12-29T18:03:34;48.90;;;27.30;;
9248;SDS011;4660;41.768;26.198;2022-12-29T18:06:02;69.30;;;37.77;;
9248;SDS011;4660;41.768;26.198;2022-12-29T18:08:36;83.37;;;42.60;;
9248;SDS011;4660;41.768;26.198;2022-12-29T18:11:25;115.23;;;54.23;;
9248;SDS011;4660;41.768;26.198;2022-12-29T18:13:52;86.57;;;42.30;;
9248;SDS011;4660;41.768;26.198;2022-12-29T18:16:21;68.10;;;34.27;;